createdAt,value
2018-09-10T00:00:04.644Z,33.18
2018-09-10T00:01:04.647Z,33.47
2018-09-10T00:02:04.649Z,33.18
2018-09-10T00:03:04.662Z,33.28
2018-09-10T00:04:04.661Z,33.28
2018-09-10T00:05:04.665Z,33.28
2018-09-10T00:06:04.673Z,33.29
2018-09-10T00:07:04.675Z,33.28
2018-09-10T00:08:04.680Z,33.18
2018-09-10T00:09:04.684Z,33.09
2018-09-10T00:10:04.689Z,33.28
2018-09-10T00:11:04.695Z,33.18
2018-09-10T00:12:04.702Z,33.09
2018-09-10T00:13:04.704Z,33.11
2018-09-10T00:14:04.709Z,33.18
2018-09-10T00:15:04.715Z,33.28
2018-09-10T00:16:04.720Z,33.28
2018-09-10T00:17:04.725Z,33.18
2018-09-10T00:18:04.729Z,33.28
2018-09-10T00:19:04.734Z,33.28
2018-09-10T00:20:04.742Z,33.18
2018-09-10T00:21:04.743Z,33.28
2018-09-10T00:22:04.749Z,33.28
2018-09-10T00:23:04.755Z,33.28
2018-09-10T00:24:04.759Z,33.28
2018-09-10T00:25:04.764Z,33.28
2018-09-10T00:26:04.769Z,33.28
2018-09-10T00:27:04.774Z,33.18
2018-09-10T00:28:04.779Z,33.28
2018-09-10T00:29:04.784Z,33.18
2018-09-10T00:30:04.792Z,33.18
2018-09-10T00:31:04.795Z,33.18
2018-09-10T00:32:04.799Z,33.18
2018-09-10T00:33:04.803Z,33.11
2018-09-10T00:34:04.809Z,33.11
2018-09-10T00:35:04.813Z,33.47
2018-09-10T00:36:04.819Z,33.18
2018-09-10T00:37:04.827Z,33.09
2018-09-10T00:38:04.829Z,33.38
2018-09-10T00:39:04.834Z,33.47
2018-09-10T00:40:04.842Z,33.09
2018-09-10T00:41:04.843Z,33.18
2018-09-10T00:42:04.849Z,33.18
2018-09-10T00:43:04.854Z,33.28
2018-09-10T00:44:04.861Z,33.18
2018-09-10T00:45:04.863Z,33.18
2018-09-10T00:46:04.868Z,33.09
2018-09-10T00:47:04.873Z,33.28
2018-09-10T00:48:04.879Z,33.38
2018-09-10T00:49:04.886Z,33.18
2018-09-10T00:50:04.888Z,33.28
2018-09-10T00:51:04.895Z,33.18
2018-09-10T00:52:04.902Z,33.38
2018-09-10T00:53:04.903Z,33.18
2018-09-10T00:54:04.912Z,33.39
2018-09-10T00:55:04.913Z,33.18
2018-09-10T00:56:04.918Z,33.18
2018-09-10T00:57:04.922Z,33.18
2018-09-10T00:58:04.928Z,33.28
2018-09-10T00:59:04.938Z,33.47
2018-09-10T01:00:04.938Z,33.18
2018-09-10T01:01:04.944Z,33.18
2018-09-10T01:02:04.948Z,33.09
2018-09-10T01:03:04.953Z,33.09
2018-09-10T01:04:04.959Z,33.28
2018-09-10T01:05:04.963Z,33.09
2018-09-10T01:06:04.968Z,33.18
2018-09-10T01:07:04.974Z,33.18
2018-09-10T01:08:04.979Z,33.09
2018-09-10T01:09:04.980Z,33.28
2018-09-10T01:10:04.990Z,33.18
2018-09-10T01:11:04.996Z,33.28
2018-09-10T01:12:04.998Z,33.18
2018-09-10T01:13:05.002Z,33.38
2018-09-10T01:14:05.007Z,33.09
2018-09-10T01:15:05.013Z,33.09
2018-09-10T01:16:05.018Z,32.89
2018-09-10T01:17:05.022Z,33.28
2018-09-10T01:18:05.027Z,33.09
2018-09-10T01:19:05.034Z,33.18
2018-09-10T01:20:05.039Z,33.38
2018-09-10T01:21:05.042Z,33.20
2018-09-10T01:22:05.047Z,33.09
2018-09-10T01:23:05.055Z,33.09
2018-09-10T01:24:05.058Z,33.28
2018-09-10T01:25:05.062Z,33.18
2018-09-10T01:26:05.067Z,33.18
2018-09-10T01:27:05.073Z,33.18
2018-09-10T01:28:05.078Z,33.18
2018-09-10T01:29:05.083Z,33.20
2018-09-10T01:30:05.088Z,33.28
2018-09-10T01:31:05.096Z,33.39
2018-09-10T01:32:05.097Z,33.18
2018-09-10T01:33:05.102Z,33.09
2018-09-10T01:34:05.107Z,33.18
2018-09-10T01:35:05.112Z,33.09
2018-09-10T01:36:05.117Z,33.18
2018-09-10T01:37:05.121Z,33.28
2018-09-10T01:38:05.132Z,33.11
2018-09-10T01:39:05.132Z,33.47
2018-09-10T01:40:05.137Z,33.18
2018-09-10T01:41:05.141Z,33.18
2018-09-10T01:42:05.147Z,33.28
2018-09-10T01:43:05.156Z,33.11
2018-09-10T01:44:05.159Z,33.20
2018-09-10T01:45:05.162Z,33.28
2018-09-10T01:46:05.167Z,33.09
2018-09-10T01:47:05.172Z,33.18
2018-09-10T01:48:05.178Z,33.49
2018-09-10T01:49:05.181Z,33.39
2018-09-10T01:50:05.187Z,33.47
2018-09-10T01:51:05.194Z,33.38
2018-09-10T01:52:05.198Z,33.47
2018-09-10T01:53:05.202Z,33.38
2018-09-10T01:54:05.207Z,33.18
2018-09-10T01:55:05.213Z,33.38
2018-09-10T01:56:05.219Z,33.38
2018-09-10T01:57:05.220Z,33.39
2018-09-10T01:58:05.227Z,33.47
2018-09-10T01:59:05.230Z,33.47
2018-09-10T02:00:05.237Z,33.39
2018-09-10T02:01:05.241Z,33.28
2018-09-10T02:02:05.247Z,33.49
2018-09-10T02:03:05.251Z,33.76
2018-09-10T02:04:05.258Z,33.78
2018-09-10T02:05:05.262Z,33.67
2018-09-10T02:06:05.266Z,33.57
2018-09-10T02:07:05.272Z,33.38
2018-09-10T02:08:05.280Z,33.38
2018-09-10T02:09:05.290Z,33.11
2018-09-10T02:10:05.287Z,33.57
2018-09-10T02:11:05.293Z,33.47
2018-09-10T02:12:05.297Z,33.47
2018-09-10T02:13:05.303Z,33.47
2018-09-10T02:14:05.309Z,33.76
2018-09-10T02:15:05.312Z,33.57
2018-09-10T02:16:05.317Z,33.57
2018-09-10T02:17:05.348Z,33.57
2018-09-10T02:18:05.327Z,33.86
2018-09-10T02:19:05.333Z,33.67
2018-09-10T02:20:05.339Z,33.96
2018-09-10T02:21:05.343Z,34.35
2018-09-10T02:22:05.347Z,34.25
2018-09-10T02:23:05.352Z,34.25
2018-09-10T02:24:05.358Z,34.35
2018-09-10T02:25:05.363Z,34.06
2018-09-10T02:26:05.368Z,34.16
2018-09-10T02:27:05.372Z,34.06
2018-09-10T02:28:05.382Z,34.35
2018-09-10T02:29:05.441Z,34.44
2018-09-10T02:30:05.396Z,34.93
2018-09-10T02:31:05.394Z,34.83
2018-09-10T02:32:05.401Z,34.74
2018-09-10T02:33:05.405Z,34.83
2018-09-10T02:34:05.406Z,34.64
2018-09-10T02:35:05.410Z,34.93
2018-09-10T02:36:05.417Z,35.03
2018-09-10T02:37:05.421Z,35.13
2018-09-10T02:38:05.426Z,34.93
2018-09-10T02:39:05.433Z,34.83
2018-09-10T02:40:05.438Z,34.74
2018-09-10T02:41:05.442Z,34.74
2018-09-10T02:42:05.446Z,34.83
2018-09-10T02:43:05.456Z,34.93
2018-09-10T02:44:05.457Z,34.93
2018-09-10T02:45:05.460Z,34.93
2018-09-10T02:46:05.469Z,35.03
2018-09-10T02:47:05.471Z,34.83
2018-09-10T02:48:05.478Z,34.74
2018-09-10T02:49:05.480Z,35.03
2018-09-10T02:50:05.495Z,35.13
2018-09-10T02:51:05.490Z,35.22
2018-09-10T02:52:05.495Z,35.13
2018-09-10T02:53:05.500Z,34.93
2018-09-10T02:54:05.505Z,35.03
2018-09-10T02:55:05.565Z,35.13
2018-09-10T02:56:05.514Z,35.13
2018-09-10T02:57:05.519Z,35.13
2018-09-10T02:58:05.527Z,35.21
2018-09-10T02:59:05.529Z,35.03
2018-09-10T03:00:05.533Z,35.11
2018-09-10T03:01:05.538Z,35.40
2018-09-10T03:02:05.543Z,35.13
2018-09-10T03:03:05.547Z,35.21
2018-09-10T03:04:05.553Z,35.22
2018-09-10T03:05:05.557Z,35.22
2018-09-10T03:06:05.564Z,35.22
2018-09-10T03:07:05.567Z,35.11
2018-09-10T03:08:05.572Z,35.03
2018-09-10T03:09:05.578Z,35.40
2018-09-10T03:10:05.582Z,35.51
2018-09-10T03:11:05.586Z,35.49
2018-09-10T03:12:05.592Z,35.71
2018-09-10T03:13:05.597Z,35.59
2018-09-10T03:14:05.604Z,35.32
2018-09-10T03:15:05.607Z,35.30
2018-09-10T03:16:05.610Z,35.21
2018-09-10T03:17:05.620Z,35.49
2018-09-10T03:18:05.794Z,35.40
2018-09-10T03:19:05.625Z,35.40
2018-09-10T03:20:05.630Z,35.49
2018-09-10T03:21:05.672Z,35.40
2018-09-10T03:22:05.638Z,35.59
2018-09-10T03:23:05.646Z,35.49
2018-09-10T03:24:05.701Z,35.49
2018-09-10T03:25:05.654Z,35.69
2018-09-10T03:26:05.656Z,35.49
2018-09-10T03:27:05.663Z,35.88
2018-09-10T03:28:05.668Z,35.59
2018-09-10T03:29:05.673Z,36.08
2018-09-10T03:30:05.678Z,35.49
2018-09-10T03:31:05.687Z,35.59
2018-09-10T03:32:05.685Z,35.88
2018-09-10T03:33:05.692Z,35.49
2018-09-10T03:34:05.696Z,35.40
2018-09-10T03:35:05.701Z,35.78
2018-09-10T03:36:05.710Z,35.40
2018-09-10T03:37:05.712Z,35.78
2018-09-10T03:38:05.716Z,35.98
2018-09-10T03:39:05.745Z,35.88
2018-09-10T03:40:05.727Z,35.69
2018-09-10T03:41:05.783Z,35.59
2018-09-10T03:42:05.734Z,35.78
2018-09-10T03:43:05.739Z,35.59
2018-09-10T03:44:05.743Z,35.78
2018-09-10T03:45:05.749Z,35.78
2018-09-10T03:46:05.769Z,35.69
2018-09-10T03:47:05.756Z,35.69
2018-09-10T03:48:05.764Z,35.78
2018-09-10T03:49:05.767Z,35.59
2018-09-10T03:50:05.771Z,35.69
2018-09-10T03:51:05.777Z,35.69
2018-09-10T03:52:05.783Z,35.88
2018-09-10T03:53:05.786Z,35.88
2018-09-10T03:54:05.793Z,35.69
2018-09-10T03:55:05.796Z,35.59
2018-09-10T03:56:05.801Z,35.69
2018-09-10T03:57:05.805Z,35.78
2018-09-10T03:58:05.810Z,36.18
2018-09-10T03:59:05.816Z,35.88
2018-09-10T04:00:05.820Z,36.18
2018-09-10T04:01:05.824Z,35.98
2018-09-10T04:02:05.828Z,35.78
2018-09-10T04:03:05.834Z,36.18
2018-09-10T04:04:05.840Z,35.98
2018-09-10T04:05:05.844Z,35.78
2018-09-10T04:06:05.847Z,36.18
2018-09-10T04:07:05.852Z,35.98
2018-09-10T04:08:05.859Z,35.98
2018-09-10T04:09:05.861Z,35.98
2018-09-10T04:10:05.867Z,35.98
2018-09-10T04:11:05.870Z,35.98
2018-09-10T04:12:05.878Z,36.27
2018-09-10T04:13:05.881Z,35.98
2018-09-10T04:14:05.887Z,36.08
2018-09-10T04:15:05.891Z,35.98
2018-09-10T04:16:05.895Z,36.08
2018-09-10T04:17:05.904Z,36.18
2018-09-10T04:18:05.904Z,36.08
2018-09-10T04:19:05.950Z,35.98
2018-09-10T04:20:05.915Z,36.18
2018-09-10T04:21:05.917Z,36.18
2018-09-10T04:22:05.923Z,36.08
2018-09-10T04:23:05.928Z,36.08
2018-09-10T04:24:05.933Z,36.08
2018-09-10T04:25:05.942Z,36.08
2018-09-10T04:26:06.034Z,36.18
2018-09-10T04:27:05.946Z,35.98
2018-09-10T04:28:05.958Z,35.98
2018-09-10T04:29:05.955Z,35.98
2018-09-10T04:30:05.961Z,36.08
2018-09-10T04:31:05.965Z,36.56
2018-09-10T04:32:05.970Z,36.18
2018-09-10T04:33:05.975Z,36.18
2018-09-10T04:34:05.979Z,36.66
2018-09-10T04:35:05.984Z,36.56
2018-09-10T04:36:06.043Z,36.56
2018-09-10T04:37:05.994Z,36.66
2018-09-10T04:38:05.998Z,36.46
2018-09-10T04:39:06.004Z,36.36
2018-09-10T04:40:06.014Z,36.56
2018-09-10T04:41:06.013Z,36.46
2018-09-10T04:42:06.025Z,36.66
2018-09-10T04:43:06.022Z,36.66
2018-09-10T04:44:06.034Z,36.76
2018-09-10T04:45:06.034Z,36.36
2018-09-10T04:46:06.041Z,36.85
2018-09-10T04:47:06.040Z,36.85
2018-09-10T04:48:06.045Z,37.43
2018-09-10T04:49:06.050Z,37.05
2018-09-10T04:50:06.055Z,37.65
2018-09-10T04:51:06.059Z,37.63
2018-09-10T04:52:06.065Z,37.05
2018-09-10T04:53:06.069Z,37.07
2018-09-10T04:54:06.073Z,37.07
2018-09-10T04:55:06.080Z,37.35
2018-09-10T04:56:06.084Z,36.66
2018-09-10T04:57:06.091Z,36.76
2018-09-10T04:58:06.153Z,36.38
2018-09-10T04:59:06.098Z,36.38
2018-09-10T05:00:06.103Z,36.38
2018-09-10T05:01:06.136Z,36.77
2018-09-10T05:02:06.111Z,36.77
2018-09-10T05:03:06.118Z,36.38
2018-09-10T05:04:06.122Z,36.38
2018-09-10T05:05:06.126Z,36.77
2018-09-10T05:06:06.155Z,36.10
2018-09-10T05:07:06.136Z,36.38
2018-09-10T05:08:06.141Z,36.30
2018-09-10T05:09:06.146Z,36.48
2018-09-10T05:10:06.184Z,36.38
2018-09-10T05:11:06.155Z,36.21
2018-09-10T05:12:06.161Z,36.21
2018-09-10T05:13:06.165Z,36.30
2018-09-10T05:14:06.170Z,35.92
2018-09-10T05:15:06.175Z,35.92
2018-09-10T05:16:06.214Z,35.72
2018-09-10T05:17:06.184Z,35.72
2018-09-10T05:18:06.190Z,36.02
2018-09-10T05:19:06.196Z,35.63
2018-09-10T05:20:06.201Z,36.02
2018-09-10T05:21:06.205Z,35.43
2018-09-10T05:22:06.320Z,36.21
2018-09-10T05:23:06.218Z,35.92
2018-09-10T05:24:06.220Z,35.53
2018-09-10T05:25:06.225Z,35.43
2018-09-10T05:26:06.273Z,35.63
2018-09-10T05:27:06.235Z,35.43
2018-09-10T05:28:06.299Z,35.72
2018-09-10T05:29:06.248Z,35.14
2018-09-10T05:30:06.256Z,35.53
2018-09-10T05:31:06.256Z,35.33
2018-09-10T05:32:06.260Z,35.14
2018-09-10T05:33:06.265Z,35.43
2018-09-10T05:34:06.270Z,35.63
2018-09-10T05:35:06.277Z,35.74
2018-09-10T05:36:06.281Z,35.45
2018-09-10T05:37:06.286Z,35.05
2018-09-10T05:38:06.293Z,35.24
2018-09-10T05:39:06.297Z,35.25
2018-09-10T05:40:06.300Z,35.25
2018-09-10T05:41:06.307Z,35.24
2018-09-10T05:42:06.313Z,35.45
2018-09-10T05:43:06.317Z,35.45
2018-09-10T05:44:06.329Z,35.06
2018-09-10T05:45:06.328Z,35.25
2018-09-10T05:46:06.333Z,34.87
2018-09-10T05:47:06.340Z,35.35
2018-09-10T05:48:06.344Z,35.06
2018-09-10T05:49:06.349Z,34.97
2018-09-10T05:50:06.354Z,35.06
2018-09-10T05:51:06.360Z,34.97
2018-09-10T05:52:06.365Z,35.16
2018-09-10T05:53:06.429Z,35.16
2018-09-10T05:54:06.373Z,35.25
2018-09-10T05:55:06.380Z,34.97
2018-09-10T05:56:06.391Z,34.87
2018-09-10T05:57:06.390Z,34.97
2018-09-10T05:58:06.396Z,35.06
2018-09-10T05:59:06.401Z,35.25
2018-09-10T06:00:06.411Z,34.77
2018-09-10T06:01:06.413Z,34.87
2018-09-10T06:02:06.417Z,34.87
2018-09-10T06:03:06.422Z,34.87
2018-09-10T06:04:06.436Z,34.87
2018-09-10T06:05:06.432Z,34.97
2018-09-10T06:06:06.448Z,34.87
2018-09-10T06:07:06.443Z,35.06
2018-09-10T06:08:06.449Z,34.87
2018-09-10T06:09:06.454Z,34.87
2018-09-10T06:10:06.459Z,34.87
2018-09-10T06:11:06.483Z,34.97
2018-09-10T06:12:06.473Z,35.16
2018-09-10T06:13:06.481Z,35.16
2018-09-10T06:14:06.481Z,34.67
2018-09-10T06:15:06.486Z,34.97
2018-09-10T06:16:06.502Z,35.06
2018-09-10T06:17:06.496Z,35.16
2018-09-10T06:18:06.502Z,35.35
2018-09-10T06:19:06.507Z,35.16
2018-09-10T06:20:06.512Z,35.06
2018-09-10T06:21:06.515Z,34.97
2018-09-10T06:22:06.523Z,35.06
2018-09-10T06:23:06.528Z,34.87
2018-09-10T06:24:06.533Z,35.06
2018-09-10T06:25:06.539Z,35.06
2018-09-10T06:26:06.543Z,35.25
2018-09-10T06:27:06.550Z,35.16
2018-09-10T06:28:06.556Z,35.25
2018-09-10T06:29:06.560Z,35.35
2018-09-10T06:30:06.603Z,35.45
2018-09-10T06:31:06.572Z,35.55
2018-09-10T06:32:06.578Z,35.25
2018-09-10T06:33:06.582Z,34.97
2018-09-10T06:34:06.636Z,34.97
2018-09-10T06:35:06.597Z,35.06
2018-09-10T06:36:06.599Z,35.16
2018-09-10T06:37:06.628Z,35.35
2018-09-10T06:38:06.606Z,35.25
2018-09-10T06:39:06.615Z,35.55
2018-09-10T06:40:06.620Z,35.55
2018-09-10T06:41:06.624Z,35.84
2018-09-10T06:42:06.630Z,35.94
2018-09-10T06:43:06.637Z,36.04
2018-09-10T06:44:06.641Z,35.94
2018-09-10T06:45:06.646Z,36.04
2018-09-10T06:46:06.686Z,35.64
2018-09-10T06:47:06.656Z,35.94
2018-09-10T06:48:06.662Z,35.64
2018-09-10T06:49:06.666Z,35.64
2018-09-10T06:50:06.672Z,35.64
2018-09-10T06:51:06.678Z,36.04
2018-09-10T06:52:06.690Z,35.94
2018-09-10T06:53:06.689Z,36.04
2018-09-10T06:54:06.693Z,35.64
2018-09-10T06:55:06.700Z,36.04
2018-09-10T06:56:06.705Z,36.04
2018-09-10T06:57:06.709Z,36.04
2018-09-10T06:58:06.713Z,35.74
2018-09-10T06:59:06.720Z,35.74
2018-09-10T07:00:06.765Z,35.45
2018-09-10T07:01:06.731Z,35.84
2018-09-10T07:02:06.737Z,35.74
2018-09-10T07:03:06.742Z,35.84
2018-09-10T07:04:06.747Z,35.84
2018-09-10T07:05:06.753Z,36.04
2018-09-10T07:06:06.758Z,36.04
2018-09-10T07:07:06.763Z,35.84
2018-09-10T07:08:06.769Z,35.84
2018-09-10T07:09:06.774Z,35.94
2018-09-10T07:10:06.780Z,35.84
2018-09-10T07:11:06.786Z,35.74
2018-09-10T07:12:06.796Z,35.84
2018-09-10T07:13:06.860Z,35.94
2018-09-10T07:14:06.801Z,35.64
2018-09-10T07:15:06.808Z,35.74
2018-09-10T07:16:06.812Z,35.74
2018-09-10T07:17:06.818Z,35.94
2018-09-10T07:18:06.826Z,35.84
2018-09-10T07:19:06.870Z,35.84
2018-09-10T07:20:06.836Z,35.94
2018-09-10T07:21:06.841Z,36.04
2018-09-10T07:22:06.844Z,36.13
2018-09-10T07:23:06.858Z,36.04
2018-09-10T07:24:06.856Z,36.32
2018-09-10T07:25:06.860Z,36.71
2018-09-10T07:26:06.868Z,36.52
2018-09-10T07:27:06.871Z,36.22
2018-09-10T07:28:06.876Z,36.52
2018-09-10T07:29:06.881Z,36.22
2018-09-10T07:30:06.886Z,36.52
2018-09-10T07:31:06.893Z,36.52
2018-09-10T07:32:06.898Z,36.91
2018-09-10T07:33:06.915Z,36.81
2018-09-10T07:34:06.911Z,36.32
2018-09-10T07:35:06.920Z,36.81
2018-09-10T07:36:06.920Z,36.52
2018-09-10T07:37:06.929Z,36.81
2018-09-10T07:38:06.930Z,36.71
2018-09-10T07:39:06.936Z,37.10
2018-09-10T07:40:06.945Z,37.30
2018-09-10T07:41:06.945Z,37.10
2018-09-10T07:42:06.954Z,37.39
2018-09-10T07:43:06.958Z,37.10
2018-09-10T07:44:07.030Z,37.10
2018-09-10T07:45:06.968Z,37.10
2018-09-10T07:46:06.973Z,37.20
2018-09-10T07:47:06.984Z,37.49
2018-09-10T07:48:06.987Z,37.49
2018-09-10T07:49:06.988Z,37.30
2018-09-10T07:50:06.995Z,38.17
2018-09-10T07:51:07.022Z,38.46
2018-09-10T07:52:07.005Z,37.68
2018-09-10T07:53:07.009Z,37.49
2018-09-10T07:54:07.015Z,37.78
2018-09-10T07:55:07.022Z,37.30
2018-09-10T07:56:07.027Z,37.59
2018-09-10T07:57:07.031Z,37.59
2018-09-10T07:58:07.036Z,37.59
2018-09-10T07:59:07.042Z,37.49
2018-09-10T08:00:07.057Z,37.39
2018-09-10T08:01:07.057Z,37.39
2018-09-10T08:02:07.057Z,37.49
2018-09-10T08:03:07.157Z,37.39
2018-09-10T08:04:07.072Z,37.68
2018-09-10T08:05:07.071Z,37.59
2018-09-10T08:06:07.079Z,37.49
2018-09-10T08:07:07.100Z,37.59
2018-09-10T08:08:07.091Z,37.30
2018-09-10T08:09:07.162Z,37.51
2018-09-10T08:10:07.101Z,38.17
2018-09-10T08:11:07.107Z,37.98
2018-09-10T08:12:07.112Z,37.78
2018-09-10T08:13:07.118Z,37.88
2018-09-10T08:14:07.122Z,37.80
2018-09-10T08:15:07.128Z,37.78
2018-09-10T08:16:07.143Z,37.60
2018-09-10T08:17:07.138Z,37.99
2018-09-10T08:18:07.144Z,38.48
2018-09-10T08:19:07.149Z,38.09
2018-09-10T08:20:07.157Z,38.48
2018-09-10T08:21:07.160Z,38.29
2018-09-10T08:22:07.166Z,38.39
2018-09-10T08:23:07.172Z,37.80
2018-09-10T08:24:07.186Z,38.29
2018-09-10T08:25:07.211Z,38.09
2018-09-10T08:26:07.186Z,38.09
2018-09-10T08:27:07.193Z,37.80
2018-09-10T08:28:07.200Z,37.99
2018-09-10T08:29:07.204Z,38.19
2018-09-10T08:30:07.209Z,37.99
2018-09-10T08:31:07.215Z,37.99
2018-09-10T08:32:07.224Z,38.19
2018-09-10T08:33:07.225Z,38.19
2018-09-10T08:34:07.231Z,37.90
2018-09-10T08:35:07.236Z,38.19
2018-09-10T08:36:07.244Z,37.99
2018-09-10T08:37:07.248Z,38.19
2018-09-10T08:38:07.253Z,38.19
2018-09-10T08:39:07.259Z,37.80
2018-09-10T08:40:07.265Z,38.57
2018-09-10T08:41:07.271Z,38.48
2018-09-10T08:42:07.277Z,38.29
2018-09-10T08:43:07.280Z,38.19
2018-09-10T08:44:07.289Z,38.48
2018-09-10T08:45:07.291Z,38.19
2018-09-10T08:46:07.299Z,38.19
2018-09-10T08:47:07.305Z,38.39
2018-09-10T08:48:07.354Z,38.11
2018-09-10T08:49:07.314Z,38.19
2018-09-10T08:50:07.320Z,38.29
2018-09-10T08:51:07.334Z,38.39
2018-09-10T08:52:07.331Z,38.29
2018-09-10T08:53:07.336Z,38.19
2018-09-10T08:54:07.392Z,38.48
2018-09-10T08:55:07.420Z,38.48
2018-09-10T08:56:07.445Z,38.48
2018-09-10T08:57:07.360Z,38.57
2018-09-10T08:58:07.364Z,38.57
2018-09-10T08:59:07.371Z,38.57
2018-09-10T09:00:07.387Z,38.48
2018-09-10T09:01:07.382Z,38.29
2018-09-10T09:02:07.388Z,38.96
2018-09-10T09:03:07.393Z,38.48
2018-09-10T09:04:07.400Z,38.77
2018-09-10T09:05:07.404Z,38.57
2018-09-10T09:06:07.517Z,38.77
2018-09-10T09:07:07.415Z,38.67
2018-09-10T09:08:07.465Z,38.60
2018-09-10T09:09:07.424Z,38.77
2018-09-10T09:10:07.431Z,38.77
2018-09-10T09:11:07.438Z,38.57
2018-09-10T09:12:07.443Z,38.96
2018-09-10T09:13:07.448Z,39.36
2018-09-10T09:14:07.453Z,39.06
2018-09-10T09:15:07.459Z,39.16
2018-09-10T09:16:07.465Z,39.06
2018-09-10T09:17:07.472Z,39.16
2018-09-10T09:18:07.475Z,39.16
2018-09-10T09:19:07.481Z,39.16
2018-09-10T09:20:07.494Z,39.16
2018-09-10T09:21:07.501Z,38.87
2018-09-10T09:22:07.503Z,38.87
2018-09-10T09:23:07.552Z,39.06
2018-09-10T09:24:07.511Z,39.26
2018-09-10T09:25:07.515Z,39.26
2018-09-10T09:26:07.521Z,39.36
2018-09-10T09:27:07.526Z,39.06
2018-09-10T09:28:07.536Z,39.26
2018-09-10T09:29:07.541Z,39.36
2018-09-10T09:30:07.565Z,39.16
2018-09-10T09:31:07.551Z,39.47
2018-09-10T09:32:07.555Z,39.45
2018-09-10T09:33:07.559Z,39.75
2018-09-10T09:34:07.572Z,39.36
2018-09-10T09:35:07.587Z,39.36
2018-09-10T09:36:07.581Z,39.55
2018-09-10T09:37:07.581Z,39.84
2018-09-10T09:38:07.589Z,39.65
2018-09-10T09:39:07.598Z,39.75
2018-09-10T09:40:07.600Z,39.75
2018-09-10T09:41:07.605Z,39.55
2018-09-10T09:42:07.610Z,39.96
2018-09-10T09:43:07.683Z,39.28
2018-09-10T09:44:07.626Z,39.57
2018-09-10T09:45:07.627Z,39.86
2018-09-10T09:46:07.633Z,39.84
2018-09-10T09:47:07.639Z,39.86
2018-09-10T09:48:07.644Z,39.67
2018-09-10T09:49:07.651Z,39.86
2018-09-10T09:50:07.660Z,39.75
2018-09-10T09:51:07.682Z,39.75
2018-09-10T09:52:07.670Z,39.67
2018-09-10T09:53:07.672Z,39.75
2018-09-10T09:54:07.680Z,39.37
2018-09-10T09:55:07.684Z,39.47
2018-09-10T09:56:07.694Z,40.42
2018-09-10T09:57:07.694Z,39.55
2018-09-10T09:58:07.703Z,39.86
2018-09-10T09:59:07.708Z,39.55
2018-09-10T10:00:07.716Z,39.67
2018-09-10T10:01:07.716Z,39.47
2018-09-10T10:02:07.725Z,39.28
2018-09-10T10:03:07.729Z,39.28
2018-09-10T10:04:07.780Z,39.76
2018-09-10T10:05:07.742Z,39.86
2018-09-10T10:06:07.751Z,39.76
2018-09-10T10:07:07.752Z,39.45
2018-09-10T10:08:07.759Z,39.75
2018-09-10T10:09:07.763Z,39.67
2018-09-10T10:10:07.837Z,39.45
2018-09-10T10:11:07.851Z,39.96
2018-09-10T10:12:07.852Z,39.96
2018-09-10T10:13:07.787Z,39.84
2018-09-10T10:14:07.791Z,40.06
2018-09-10T10:15:07.800Z,39.67
2018-09-10T10:16:07.803Z,39.76
2018-09-10T10:17:07.813Z,39.86
2018-09-10T10:18:07.814Z,39.86
2018-09-10T10:19:07.821Z,39.67
2018-09-10T10:20:07.825Z,39.76
2018-09-10T10:21:07.831Z,39.67
2018-09-10T10:22:07.881Z,39.76
2018-09-10T10:23:07.845Z,39.86
2018-09-10T10:24:07.849Z,39.86
2018-09-10T10:25:07.855Z,39.47
2018-09-10T10:26:07.861Z,39.37
2018-09-10T10:27:07.867Z,39.28
2018-09-10T10:28:07.918Z,39.47
2018-09-10T10:29:07.879Z,39.18
2018-09-10T10:30:07.884Z,39.08
2018-09-10T10:31:07.893Z,39.28
2018-09-10T10:32:07.897Z,39.08
2018-09-10T10:33:07.904Z,39.08
2018-09-10T10:34:07.908Z,40.25
2018-09-10T10:35:07.913Z,40.54
2018-09-10T10:36:07.941Z,39.47
2018-09-10T10:37:07.924Z,39.08
2018-09-10T10:38:07.930Z,39.08
2018-09-10T10:39:07.961Z,38.91
2018-09-10T10:40:07.943Z,39.08
2018-09-10T10:41:07.960Z,39.18
2018-09-10T10:42:07.954Z,39.18
2018-09-10T10:43:07.964Z,38.70
2018-09-10T10:44:07.967Z,38.70
2018-09-10T10:45:07.978Z,38.70
2018-09-10T10:46:07.981Z,38.70
2018-09-10T10:47:07.984Z,38.79
2018-09-10T10:48:07.989Z,38.79
2018-09-10T10:49:07.994Z,38.79
2018-09-10T10:50:08.000Z,38.60
2018-09-10T10:51:08.006Z,38.32
2018-09-10T10:52:08.015Z,38.70
2018-09-10T10:53:08.019Z,38.71
2018-09-10T10:54:08.026Z,38.50
2018-09-10T10:55:08.031Z,38.40
2018-09-10T10:56:08.036Z,38.62
2018-09-10T10:57:08.083Z,38.31
2018-09-10T10:58:08.048Z,38.40
2018-09-10T10:59:08.052Z,38.31
2018-09-10T11:00:08.064Z,38.50
2018-09-10T11:01:08.067Z,38.42
2018-09-10T11:02:08.071Z,38.23
2018-09-10T11:03:08.079Z,38.13
2018-09-10T11:04:08.103Z,37.72
2018-09-10T11:05:08.088Z,37.92
2018-09-10T11:06:08.095Z,37.84
2018-09-10T11:07:08.102Z,38.11
2018-09-10T11:08:08.110Z,37.54
2018-09-10T11:09:08.112Z,37.93
2018-09-10T11:10:08.118Z,38.03
2018-09-10T11:11:08.127Z,37.54
2018-09-10T11:12:08.139Z,37.72
2018-09-10T11:13:08.139Z,37.43
2018-09-10T11:14:08.143Z,37.62
2018-09-10T11:15:08.151Z,37.54
2018-09-10T11:16:08.154Z,37.43
2018-09-10T11:17:08.159Z,37.74
2018-09-10T11:18:08.166Z,37.34
2018-09-10T11:19:08.172Z,37.72
2018-09-10T11:20:08.178Z,37.62
2018-09-10T11:21:08.184Z,37.45
2018-09-10T11:22:08.192Z,37.24
2018-09-10T11:23:08.195Z,37.64
2018-09-10T11:24:08.202Z,37.54
2018-09-10T11:25:08.207Z,37.54
2018-09-10T11:26:08.214Z,37.14
2018-09-10T11:27:08.219Z,37.54
2018-09-10T11:28:08.226Z,37.45
2018-09-10T11:29:08.232Z,36.94
2018-09-10T11:30:08.238Z,37.04
2018-09-10T11:31:08.244Z,37.06
2018-09-10T11:32:08.260Z,37.43
2018-09-10T11:33:08.254Z,37.06
2018-09-10T11:34:08.261Z,36.67
2018-09-10T11:35:08.267Z,37.06
2018-09-10T11:36:08.274Z,36.85
2018-09-10T11:37:08.278Z,36.85
2018-09-10T11:38:08.284Z,36.85
2018-09-10T11:39:08.297Z,36.65
2018-09-10T11:40:08.301Z,36.65
2018-09-10T11:41:08.303Z,36.55
2018-09-10T11:42:08.307Z,36.46
2018-09-10T11:43:08.313Z,36.85
2018-09-10T11:44:08.320Z,36.36
2018-09-10T11:45:08.323Z,37.04
2018-09-10T11:46:08.331Z,37.43
2018-09-10T11:47:08.339Z,37.64
2018-09-10T11:48:08.345Z,37.82
2018-09-10T11:49:08.349Z,37.93
2018-09-10T11:50:08.357Z,36.87
2018-09-10T11:51:08.373Z,36.96
2018-09-10T11:52:08.368Z,36.28
2018-09-10T11:53:08.373Z,36.57
2018-09-10T11:54:08.379Z,36.08
2018-09-10T11:55:08.386Z,35.89
2018-09-10T11:56:08.397Z,35.49
2018-09-10T11:57:08.397Z,35.50
2018-09-10T11:58:08.403Z,35.70
2018-09-10T11:59:08.408Z,35.80
2018-09-10T12:00:08.415Z,35.70
2018-09-10T12:01:08.422Z,35.50
2018-09-10T12:02:08.493Z,35.50
2018-09-10T12:03:08.430Z,35.31
2018-09-10T12:04:08.440Z,34.92
2018-09-10T12:05:08.446Z,34.92
2018-09-10T12:06:08.449Z,34.92
2018-09-10T12:07:08.456Z,35.02
2018-09-10T12:08:08.461Z,35.21
2018-09-10T12:09:08.467Z,34.92
2018-09-10T12:10:08.474Z,35.02
2018-09-10T12:11:08.480Z,35.02
2018-09-10T12:12:08.487Z,34.92
2018-09-10T12:13:08.491Z,35.02
2018-09-10T12:14:08.502Z,34.92
2018-09-10T12:15:08.503Z,34.70
2018-09-10T12:16:08.509Z,35.02
2018-09-10T12:17:08.514Z,35.02
2018-09-10T12:18:08.518Z,35.02
2018-09-10T12:19:08.536Z,35.02
2018-09-10T12:20:08.534Z,35.50
2018-09-10T12:21:08.541Z,34.82
2018-09-10T12:22:08.552Z,35.11
2018-09-10T12:23:08.549Z,34.82
2018-09-10T12:24:08.561Z,34.82
2018-09-10T12:25:08.563Z,34.33
2018-09-10T12:26:08.568Z,34.33
2018-09-10T12:27:08.575Z,34.53
2018-09-10T12:28:08.580Z,34.53
2018-09-10T12:29:08.589Z,35.02
2018-09-10T12:30:08.591Z,34.63
2018-09-10T12:31:08.601Z,34.92
2018-09-10T12:32:08.604Z,35.31
2018-09-10T12:33:08.609Z,34.53
2018-09-10T12:34:08.619Z,34.33
2018-09-10T12:35:08.632Z,34.14
2018-09-10T12:36:08.631Z,34.24
2018-09-10T12:37:08.636Z,34.14
2018-09-10T12:38:08.639Z,34.24
2018-09-10T12:39:08.645Z,35.02
2018-09-10T12:40:08.652Z,34.33
2018-09-10T12:41:08.659Z,34.24
2018-09-10T12:42:08.663Z,34.43
2018-09-10T12:43:08.669Z,33.85
2018-09-10T12:44:08.676Z,33.75
2018-09-10T12:45:08.680Z,34.14
2018-09-10T12:46:08.690Z,33.65
2018-09-10T12:47:08.695Z,33.75
2018-09-10T12:48:08.702Z,33.95
2018-09-10T12:49:08.709Z,33.56
2018-09-10T12:50:08.711Z,33.26
2018-09-10T12:51:08.720Z,35.11
2018-09-10T12:52:08.731Z,34.24